»·PEaware :: DAL591 KLAS-KSAN

DAL591 :: KLAS-KSAN

FLIGHT INFORMATION

Flight Status: Arrived
Operator:
Delta Air Lines
More flights by this operator :: More flights under this callsign
Pilot: Ryan B. (8502)
Aircraft: MCDONNELL-DOUGLAS MD-88
(MD88)
More flights by this aircraft type
Origin: KLAS McCarran Intl
United States
Destination: KSAN San Diego Intl-Lindbergh
United States
More flights between these airports :: More routes between these airports
Route: +BOACH7 LVELL LUCKI1
File this flight plan on PilotEdge
Remarks: DELTA CHARTER SERVICE
Altitude:
(Current/Filed)
32,000ft
Speed:
(Current/Filed)
453kts
Departed: 23-May-17 04:52 PM
Arrived: 23-May-17 05:35 PM
Distance/Time
Traveled:
225nm/0:43
Distance/Time
To Go:
Arrived

Flight Plot

Page will automatically refresh every two minutes.

Flight plan parsing failed; only flown route is shown


Map Options




Map Legend


Flown Route
Filed Route
Departure Airport
Arrival Airport
Navaid (VOR, NDB)
Fix

Horizontal Profiles

Position Reports

Time Latitude Longitude Heading Altitude Ground
Speed
23-May-17 16:37 36.081461 -115.171217 89 2171ft 0kts
23-May-17 16:38 36.081461 -115.171217 89 2171ft 0kts
23-May-17 16:39 36.081461 -115.171217 89 2171ft 0kts
23-May-17 16:40 36.081461 -115.171217 89 2171ft 0kts
23-May-17 16:41 36.081461 -115.171217 89 2171ft 0kts
23-May-17 16:42 36.081461 -115.171217 89 2171ft 0kts
23-May-17 16:43 36.081461 -115.171217 89 2171ft 0kts
23-May-17 16:44 36.081461 -115.171217 89 2171ft 0kts
23-May-17 16:45 36.081461 -115.171217 89 2171ft 0kts
23-May-17 16:46 36.081461 -115.171217 89 2171ft 0kts
23-May-17 16:47 36.081461 -115.171217 89 2171ft 0kts
23-May-17 16:48 36.081461 -115.171217 89 2171ft 0kts
23-May-17 16:49 36.081461 -115.170937 89 2170ft 3kts
23-May-17 16:50 36.082738 -115.168462 24 2163ft 17kts
23-May-17 16:51 36.089595 -115.164532 25 2134ft 33kts
23-May-17 16:52 36.098708 -115.159313 24 2096ft 24kts
23-May-17 16:53 36.099832 -115.157630 78 2088ft 5kts
23-May-17 16:54 36.091682 -115.161008 204 2117ft 109kts
23-May-17 16:55 36.052925 -115.184783 202 3442ft 173kts
23-May-17 16:56 36.008459 -115.212686 231 5139ft 216kts
23-May-17 16:57 35.977002 -115.287340 237 6505ft 280kts
23-May-17 16:58 35.907467 -115.310999 183 9315ft 282kts
23-May-17 16:59 35.827519 -115.312539 173 11452ft 315kts
23-May-17 17:00 35.733025 -115.300921 175 13027ft 371kts
23-May-17 17:01 35.630658 -115.296037 183 16274ft 373kts
23-May-17 17:02 35.526062 -115.300702 182 19200ft 384kts
23-May-17 17:03 35.417788 -115.304997 181 22042ft 397kts
23-May-17 17:04 35.307004 -115.309338 181 22971ft 403kts
23-May-17 17:05 35.195338 -115.313703 181 22899ft 403kts
23-May-17 17:06 35.083197 -115.318094 181 22868ft 403kts
23-May-17 17:07 34.971818 -115.322398 182 22851ft 401kts
23-May-17 17:08 34.859420 -115.326894 180 22857ft 431kts
23-May-17 17:09 34.740295 -115.346278 197 24604ft 444kts
23-May-17 17:10 34.623908 -115.399567 197 26847ft 455kts
23-May-17 17:11 34.504095 -115.451892 197 29008ft 465kts
23-May-17 17:12 34.382455 -115.504986 196 30624ft 468kts
23-May-17 17:13 34.264638 -115.574154 209 31830ft 479kts
23-May-17 17:14 34.146988 -115.645497 197 32259ft 482kts
23-May-17 17:15 34.030739 -115.699608 197 31936ft 440kts
23-May-17 17:16 33.915564 -115.753836 197 31789ft 447kts
23-May-17 17:17 33.816411 -115.802443 198 31779ft 447kts
23-May-17 17:18 33.705114 -115.855528 197 29817ft 429kts
23-May-17 17:19 33.591473 -115.908688 199 26855ft 446kts
23-May-17 17:20 33.487359 -115.982593 233 24903ft 440kts
23-May-17 17:21 33.423116 -116.102390 236 23089ft 427kts
23-May-17 17:22 33.357041 -116.216339 236 21287ft 409kts
23-May-17 17:23 33.264063 -116.293934 205 18683ft 413kts
23-May-17 17:24 33.163264 -116.351962 206 16033ft 392kts
23-May-17 17:25 33.068854 -116.407162 206 13401ft 375kts
23-May-17 17:26 32.981152 -116.467417 221 12018ft 361kts
23-May-17 17:27 32.905245 -116.545332 220 11470ft 358kts
23-May-17 17:28 32.835459 -116.615790 219 10919ft 316kts
23-May-17 17:29 32.778618 -116.673040 222 10143ft 281kts
23-May-17 17:30 32.740060 -116.748634 240 8367ft 273kts
23-May-17 17:31 32.728331 -116.833745 266 6608ft 267kts
23-May-17 17:32 32.724651 -116.920180 262 5506ft 261kts
23-May-17 17:33 32.711774 -116.992687 257 4842ft 202kts
23-May-17 17:34 32.703347 -117.056186 275 3358ft 195kts
23-May-17 17:35 32.715713 -117.114831 285 1814ft 175kts
23-May-17 17:36 32.726915 -117.162406 284 508ft 136kts
23-May-17 17:37 32.735017 -117.195749 285 18ft 28kts
23-May-17 17:38 32.735237 -117.201200 264 16ft 8kts
23-May-17 17:39 32.734196 -117.202783 236 16ft 3kts
23-May-17 17:40 32.734145 -117.203279 267 16ft 0kts

Navigation Log

Ident Type
Flight plan parsing failed, navigation log unavailable